createdAt,value
2017-03-27T00:00:02.628Z,0
2017-03-27T00:05:02.609Z,0
2017-03-27T00:10:03.502Z,0
2017-03-27T00:15:03.033Z,0
2017-03-27T00:20:02.631Z,0
2017-03-27T00:25:03.288Z,0
2017-03-27T00:30:02.940Z,0
2017-03-27T00:35:02.488Z,0
2017-03-27T00:40:03.053Z,0
2017-03-27T00:45:02.686Z,0
2017-03-27T00:50:03.311Z,0
2017-03-27T00:55:02.980Z,0
2017-03-27T01:00:02.579Z,0
2017-03-27T01:05:03.165Z,0
2017-03-27T01:10:02.951Z,0
2017-03-27T01:15:02.558Z,0
2017-03-27T01:20:03.188Z,0
2017-03-27T01:25:02.900Z,0
2017-03-27T01:30:02.751Z,0
2017-03-27T01:35:03.388Z,0
2017-03-27T01:40:03.130Z,0
2017-03-27T01:45:02.705Z,0
2017-03-27T01:50:03.360Z,0
2017-03-27T01:55:03.038Z,0
2017-03-27T02:00:02.799Z,0
2017-03-27T02:05:03.389Z,0
2017-03-27T02:10:03.167Z,0
2017-03-27T02:15:02.959Z,0
2017-03-27T02:20:02.714Z,0
2017-03-27T02:25:02.459Z,0
2017-03-27T02:30:03.148Z,0
2017-03-27T02:35:02.795Z,0
2017-03-27T02:40:02.502Z,0
2017-03-27T02:45:06.281Z,0
2017-03-27T02:50:02.741Z,0
2017-03-27T02:55:03.387Z,0
2017-03-27T03:00:03.129Z,0
2017-03-27T03:05:02.878Z,0
2017-03-27T03:10:02.600Z,0
2017-03-27T03:15:03.176Z,0
2017-03-27T03:20:02.727Z,0
2017-03-27T03:25:03.257Z,0
2017-03-27T03:30:02.797Z,0
2017-03-27T03:35:03.421Z,0
2017-03-27T03:40:03.033Z,0
2017-03-27T03:45:02.576Z,0
2017-03-27T03:50:03.107Z,0
2017-03-27T03:55:02.706Z,0
2017-03-27T04:00:03.700Z,0
2017-03-27T04:05:03.448Z,0
2017-03-27T04:10:03.008Z,0
2017-03-27T04:15:02.830Z,0
2017-03-27T04:20:02.509Z,0
2017-03-27T04:25:03.374Z,0
2017-03-27T04:30:03.462Z,0
2017-03-27T04:35:03.220Z,0
2017-03-27T04:40:02.768Z,0
2017-03-27T04:45:03.415Z,0
2017-03-27T04:50:03.148Z,3
2017-03-27T04:55:02.774Z,7
2017-03-27T05:00:02.523Z,18
2017-03-27T05:05:03.331Z,40
2017-03-27T05:10:03.117Z,56
2017-03-27T05:15:02.812Z,75
2017-03-27T05:20:02.544Z,140
2017-03-27T05:25:03.341Z,268
2017-03-27T05:30:02.843Z,377
2017-03-27T05:35:02.558Z,519
2017-03-27T05:40:03.345Z,616
2017-03-27T05:45:02.970Z,733
2017-03-27T05:50:02.739Z,821
2017-03-27T05:55:03.375Z,932
2017-03-27T06:00:03.147Z,1000
2017-03-27T06:05:03.161Z,1000
2017-03-27T06:10:02.768Z,1000
2017-03-27T06:15:03.313Z,1000
2017-03-27T06:20:03.037Z,1000
2017-03-27T06:25:02.775Z,1000
2017-03-27T06:30:03.393Z,1000
2017-03-27T06:35:02.923Z,1000
2017-03-27T06:40:02.538Z,1000
2017-03-27T06:45:03.142Z,1000
2017-03-27T06:50:02.752Z,1000
2017-03-27T06:55:03.340Z,2000
2017-03-27T07:00:02.909Z,2000
2017-03-27T07:05:03.584Z,2000
2017-03-27T07:10:03.327Z,2000
2017-03-27T07:15:03.024Z,2000
2017-03-27T07:20:02.792Z,2000
2017-03-27T07:25:03.384Z,3000
2017-03-27T07:30:02.942Z,3000
2017-03-27T07:35:02.793Z,3000
2017-03-27T07:40:03.587Z,3000
2017-03-27T07:45:03.188Z,3000
2017-03-27T07:50:02.898Z,3000
2017-03-27T07:55:02.598Z,3000
2017-03-27T08:00:03.354Z,3000
2017-03-27T08:05:03.113Z,3000
2017-03-27T08:10:02.833Z,38000
2017-03-27T08:15:03.443Z,38000
2017-03-27T08:20:03.003Z,40000
2017-03-27T08:25:02.647Z,42000
2017-03-27T08:30:03.263Z,43000
2017-03-27T08:35:02.958Z,46000
2017-03-27T08:40:02.627Z,46000
2017-03-27T08:45:03.197Z,48000
2017-03-27T08:50:02.752Z,48000
2017-03-27T08:55:03.463Z,49000
2017-03-27T09:00:03.088Z,52000
2017-03-27T09:05:02.806Z,52000
2017-03-27T09:10:02.653Z,51000
2017-03-27T09:15:03.231Z,53000
2017-03-27T09:20:02.780Z,54000
2017-03-27T09:25:03.379Z,54000
2017-03-27T09:30:03.036Z,55000
2017-03-27T09:35:02.697Z,55000
2017-03-27T09:40:03.449Z,55000
2017-03-27T09:45:03.093Z,56000
2017-03-27T09:50:02.834Z,56000
2017-03-27T09:55:03.437Z,55000
2017-03-27T10:00:03.129Z,55000
2017-03-27T10:05:02.636Z,55000
2017-03-27T10:10:03.323Z,55000
2017-03-27T10:15:02.934Z,56000
2017-03-27T10:20:02.508Z,56000
2017-03-27T10:25:03.391Z,55000
2017-03-27T10:30:02.675Z,55000
2017-03-27T10:35:03.360Z,56000
2017-03-27T10:40:02.496Z,56000
2017-03-27T10:45:03.143Z,55000
2017-03-27T10:50:02.832Z,55000
2017-03-27T10:55:02.618Z,55000
2017-03-27T11:00:03.428Z,56000
2017-03-27T11:05:02.977Z,55000
2017-03-27T11:10:02.733Z,54000
2017-03-27T11:15:03.427Z,54000
2017-03-27T11:20:03.330Z,54000
2017-03-27T11:25:03.275Z,54000
2017-03-27T11:30:03.085Z,54000
2017-03-27T11:35:02.739Z,54000
2017-03-27T11:40:02.496Z,54000
2017-03-27T11:45:03.156Z,54000
2017-03-27T11:50:02.762Z,54000
2017-03-27T11:55:02.520Z,53000
2017-03-27T12:00:03.258Z,54000
2017-03-27T12:05:02.965Z,52000
2017-03-27T12:10:02.996Z,52000
2017-03-27T12:15:02.716Z,52000
2017-03-27T12:20:03.465Z,52000
2017-03-27T12:25:03.197Z,50000
2017-03-27T12:30:02.790Z,49000
2017-03-27T12:35:03.321Z,49000
2017-03-27T12:40:03.178Z,49000
2017-03-27T12:45:02.928Z,48000
2017-03-27T12:50:02.628Z,48000
2017-03-27T12:55:03.259Z,47000
2017-03-27T13:00:03.222Z,45000
2017-03-27T13:05:02.961Z,45000
2017-03-27T13:10:03.249Z,45000
2017-03-27T13:15:03.155Z,43000
2017-03-27T13:20:02.844Z,43000
2017-03-27T13:25:02.562Z,42000
2017-03-27T13:30:02.945Z,40000
2017-03-27T13:35:03.169Z,40000
2017-03-27T13:40:03.388Z,39000
2017-03-27T13:45:03.382Z,37000
2017-03-27T13:50:02.943Z,37000
2017-03-27T13:55:02.877Z,36000
2017-03-27T14:00:02.548Z,35000
2017-03-27T14:05:03.306Z,35000
2017-03-27T14:10:03.369Z,35000
2017-03-27T14:15:03.179Z,34000
2017-03-27T14:20:02.878Z,33000
2017-03-27T14:25:02.985Z,34000
2017-03-27T14:30:03.046Z,34000
2017-03-27T14:35:02.828Z,34000
2017-03-27T14:40:02.615Z,32000
2017-03-27T14:45:03.352Z,30000
2017-03-27T14:50:03.075Z,29000
2017-03-27T14:55:02.825Z,28000
2017-03-27T15:00:02.832Z,28000
2017-03-27T15:05:02.556Z,27000
2017-03-27T15:10:03.516Z,26000
2017-03-27T15:15:03.427Z,25000
2017-03-27T15:20:03.141Z,25000
2017-03-27T15:25:02.757Z,24000
2017-03-27T15:30:03.334Z,24000
2017-03-27T15:35:02.945Z,23000
2017-03-27T15:40:02.781Z,23000
2017-03-27T15:45:03.364Z,22000
2017-03-27T15:50:02.977Z,22000
2017-03-27T15:55:02.903Z,21000
2017-03-27T16:00:02.629Z,21000
2017-03-27T16:05:03.304Z,20000
2017-03-27T16:10:03.030Z,19000
2017-03-27T16:15:02.601Z,19000
2017-03-27T16:20:03.282Z,18000
2017-03-27T16:25:02.956Z,17000
2017-03-27T16:30:02.597Z,3000
2017-03-27T16:35:03.355Z,3000
2017-03-27T16:40:03.105Z,2000
2017-03-27T16:45:02.699Z,2000
2017-03-27T16:50:03.398Z,2000
2017-03-27T16:55:02.972Z,2000
2017-03-27T17:00:02.639Z,2000
2017-03-27T17:05:03.348Z,2000
2017-03-27T17:10:03.235Z,1000
2017-03-27T17:15:02.780Z,1000
2017-03-27T17:20:03.398Z,3000
2017-03-27T17:25:03.132Z,1000
2017-03-27T17:30:02.790Z,1000
2017-03-27T17:35:03.480Z,998
2017-03-27T17:40:03.265Z,729
2017-03-27T17:45:02.874Z,600
2017-03-27T17:50:02.553Z,471
2017-03-27T17:55:03.149Z,350
2017-03-27T18:00:02.753Z,228
2017-03-27T18:05:03.388Z,101
2017-03-27T18:10:03.226Z,62
2017-03-27T18:15:02.425Z,38
2017-03-27T18:20:03.131Z,19
2017-03-27T18:25:02.784Z,6
2017-03-27T18:30:02.446Z,3
2017-03-27T18:35:02.969Z,1
2017-03-27T18:40:02.586Z,0
2017-03-27T18:45:03.064Z,0
2017-03-27T18:50:02.621Z,0
2017-03-27T18:55:03.261Z,0
2017-03-27T19:00:02.844Z,0
2017-03-27T19:05:02.517Z,0
2017-03-27T19:10:03.338Z,0
2017-03-27T19:15:03.113Z,0
2017-03-27T19:20:02.790Z,0
2017-03-27T19:25:02.553Z,0
2017-03-27T19:30:03.152Z,0
2017-03-27T19:35:02.852Z,0
2017-03-27T19:40:02.641Z,0
2017-03-27T19:45:03.321Z,0
2017-03-27T19:50:02.870Z,0
2017-03-27T19:55:02.626Z,0
2017-03-27T20:00:03.198Z,0
2017-03-27T20:05:02.807Z,0
2017-03-27T20:10:02.730Z,0
2017-03-27T20:15:02.532Z,0
2017-03-27T20:20:03.266Z,0
2017-03-27T20:25:02.736Z,0
2017-03-27T20:30:03.351Z,0
2017-03-27T20:35:02.927Z,0
2017-03-27T20:40:02.549Z,0
2017-03-27T20:45:03.296Z,0
2017-03-27T20:50:02.835Z,0
2017-03-27T20:55:03.500Z,0
2017-03-27T21:00:03.273Z,0
2017-03-27T21:05:03.061Z,0
2017-03-27T21:10:02.874Z,0
2017-03-27T21:15:02.592Z,0
2017-03-27T21:20:03.319Z,0
2017-03-27T21:25:02.979Z,0
2017-03-27T21:30:02.861Z,0
2017-03-27T21:35:02.478Z,0
2017-03-27T21:40:03.340Z,0
2017-03-27T21:45:03.092Z,0
2017-03-27T21:50:02.698Z,0
2017-03-27T21:55:03.418Z,0
2017-03-27T22:00:03.215Z,0
2017-03-27T22:05:02.773Z,0
2017-03-27T22:10:02.650Z,0
2017-03-27T22:15:03.367Z,0
2017-03-27T22:20:03.181Z,0
2017-03-27T22:25:02.729Z,0
2017-03-27T22:30:03.480Z,0
2017-03-27T22:35:03.176Z,0
2017-03-27T22:40:02.972Z,0
2017-03-27T22:45:02.646Z,0
2017-03-27T22:50:03.341Z,0
2017-03-27T22:55:02.944Z,0
2017-03-27T23:00:02.684Z,0
2017-03-27T23:05:02.899Z,0
2017-03-27T23:10:02.744Z,0
2017-03-27T23:15:03.465Z,0
2017-03-27T23:20:03.131Z,0
2017-03-27T23:25:02.698Z,0
2017-03-27T23:30:03.384Z,0
2017-03-27T23:35:03.045Z,0
2017-03-27T23:40:02.863Z,0
2017-03-27T23:45:02.544Z,0
2017-03-27T23:50:03.254Z,0
2017-03-27T23:55:02.749Z,0
